KBVS

Skagit Regional Airport

Burlington/Mount Vernon, Washington, USA
METAR KBVS 230835Z AUTO 00000KT 10SM CLR 10/08 A2983 RMK A01
Observed Flight Rules
May-23 @ 08:35 UTC (10 minutes ago) Visual Flight Rules
Visibility Clouds
10 miles
  • Clear skies
Temperatures Readings
Current 10°C / 50°F
Dewpoint 8°C / 46°F
Humidity 88%
Altimeter 29.83" Hg
Pressure 1010 hPa
Elevation 43
METAR KBVS 230835Z AUTO 00000KT 10SM CLR 10/08 A2983 RMK A01
Observed Flight Rules
May-23 @ 08:35 UTC
(10 minutes ago)
VFR
Clouds
  • Clear skies
Temperature Dewpoint
10°C / 50°F 8°C / 46°F
Humidity Altimeter Pressure
88% 29.83" Hg 1010 hPa